LCRA/AKT METAR and TAF weather

Enter ICAO airport designator
Station Type Date Time Source
LCRA METAR 2021/04/14 19:50 UTC NOAA

LCRA 141950Z 02003KT CAVOK 14/10 Q1018 NOSIG RMK BLU BLU


Station Type Date Time Source
LCRA Decoded METAR 2021/04/14 19:50 UTC NOAA

Akrotiri, Cyprus (LCRA) 34-35N 032-59E 0M
Apr 14, 2021 - 03:50 PM EDT / 2021.04.14 1950 UTC
Wind: from the NNE (020 degrees) at 3 MPH (3 KT):0
Visibility: greater than 7 mile(s):0
Temperature: 57 F (14 C)
Dew Point: 50 F (10 C)
Relative Humidity: 76%
Pressure (altimeter): 30.06 in. Hg (1018 hPa)
ob: LCRA 141950Z 02003KT CAVOK 14/10 Q1018 NOSIG RMK BLU BLU
cycle: 20

Station Type Date Time Source
LCRA TAF 2021/04/14 21:34 UTC NOAA

TAF LCRA 141922Z 1421/1515 33005KT CAVOK
TEMPO 1421/1503 VRB03KT
BECMG 1503/1506 07005KT
BECMG 1510/1513 23007KT

Example: see airport list